createdAt,value
2023-05-09T00:01:24.547Z,101075.72
2023-05-09T00:03:52.405Z,101078.79
2023-05-09T00:06:19.894Z,101076.65
2023-05-09T00:08:46.688Z,101079.05
2023-05-09T00:11:13.350Z,101076.10
2023-05-09T00:13:40.168Z,101079.49
2023-05-09T00:16:07.156Z,101078.46
2023-05-09T00:18:34.124Z,101076.39
2023-05-09T00:21:02.489Z,101070.55
2023-05-09T00:23:29.060Z,101075.11
2023-05-09T00:25:55.823Z,101079.33
2023-05-09T00:28:22.549Z,101077.61
2023-05-09T00:30:49.218Z,101076.29
2023-05-09T00:33:16.266Z,101076.27
2023-05-09T00:35:42.869Z,101073.69
2023-05-09T00:38:09.597Z,101074.88
2023-05-09T00:40:36.540Z,101071.23
2023-05-09T00:43:03.303Z,101073.52
2023-05-09T00:45:29.956Z,101072.09
2023-05-09T00:47:57.708Z,101072.90
2023-05-09T00:50:24.994Z,101074.38
2023-05-09T00:52:51.830Z,101068.42
2023-05-09T00:55:19.820Z,101065.46
2023-05-09T00:57:46.506Z,101063.71
2023-05-09T01:00:14.108Z,101063.63
2023-05-09T01:02:46.730Z,101061.70
2023-05-09T01:05:15.340Z,101060.76
2023-05-09T01:08:18.171Z,101056.34
2023-05-09T01:11:09.464Z,101049.55
2023-05-09T01:13:51.680Z,101050.98
2023-05-09T01:16:37.582Z,101051.11
2023-05-09T01:19:29.389Z,101047.52
2023-05-09T01:21:57.181Z,101046.40
2023-05-09T01:25:05.672Z,101047.92
2023-05-09T01:28:06.703Z,101048.02
2023-05-09T01:30:35.995Z,101053.45
2023-05-09T01:33:07.269Z,101053.30
2023-05-09T01:35:37.455Z,101060.02
2023-05-09T01:38:12.605Z,101061.80
2023-05-09T01:40:42.482Z,101067.23
2023-05-09T01:43:11.268Z,101063.66
2023-05-09T01:45:39.514Z,101062.28
2023-05-09T01:48:08.805Z,101061.46
2023-05-09T01:50:36.204Z,101060.84
2023-05-09T01:53:05.846Z,101060.58
2023-05-09T01:55:35.365Z,101060.27
2023-05-09T01:58:05.070Z,101066.42
2023-05-09T02:00:35.479Z,101064.77
2023-05-09T02:03:04.156Z,101064.46
2023-05-09T02:05:32.418Z,101058.23
2023-05-09T02:07:59.480Z,101056.85
2023-05-09T02:10:29.963Z,101052.50
2023-05-09T02:12:57.888Z,101052.75
2023-05-09T02:15:25.985Z,101053.17
2023-05-09T02:17:52.698Z,101051.14
2023-05-09T02:20:19.524Z,101049.67
2023-05-09T02:22:47.136Z,101049.59
2023-05-09T02:25:15.869Z,101046.64
2023-05-09T02:27:45.418Z,101042.86
2023-05-09T02:30:17.501Z,101038.46
2023-05-09T02:32:47.304Z,101031.80
2023-05-09T02:35:16.481Z,101029.93
2023-05-09T02:37:45.421Z,101028.40
2023-05-09T02:40:13.392Z,101026.77
2023-05-09T02:42:40.134Z,101033.13
2023-05-09T02:45:07.984Z,101030.41
2023-05-09T02:47:35.770Z,101032.92
2023-05-09T02:50:02.567Z,101028.27
2023-05-09T02:52:29.207Z,101028.94
2023-05-09T02:54:55.944Z,101031.95
2023-05-09T02:57:23.112Z,101029.15
2023-05-09T02:59:49.816Z,101026.80
2023-05-09T03:02:16.747Z,101023.29
2023-05-09T03:04:44.172Z,101018.17
2023-05-09T03:07:10.815Z,101021.42
2023-05-09T03:09:39.248Z,101020.78
2023-05-09T03:12:08.292Z,101019.02
2023-05-09T03:14:35.787Z,101021.60
2023-05-09T03:17:02.635Z,101019.19
2023-05-09T03:19:33.628Z,101018.90
2023-05-09T03:22:00.336Z,101011.82
2023-05-09T03:24:28.355Z,101007.84
2023-05-09T03:26:55.313Z,101008.20
2023-05-09T03:29:22.084Z,101009.09
2023-05-09T03:31:48.938Z,101006.64
2023-05-09T03:34:15.630Z,101008.15
2023-05-09T03:36:46.316Z,101009.70
2023-05-09T03:39:14.280Z,101009.07
2023-05-09T03:41:44.239Z,101011.43
2023-05-09T03:44:13.070Z,101012.80
2023-05-09T03:46:39.784Z,101011.60
2023-05-09T03:49:06.996Z,101010.34
2023-05-09T03:51:33.841Z,101010.32
2023-05-09T03:54:01.286Z,101014.77
2023-05-09T03:56:28.796Z,101022.70
2023-05-09T03:58:55.522Z,101025.13
2023-05-09T04:01:22.464Z,101030.99
2023-05-09T04:03:49.306Z,101033.05
2023-05-09T04:06:16.559Z,101029.36
2023-05-09T04:08:44.662Z,101032.48
2023-05-09T04:11:11.290Z,101034.93
2023-05-09T04:13:39.608Z,101035.11
2023-05-09T04:16:13.382Z,101039.83
2023-05-09T04:18:42.356Z,101040.21
2023-05-09T04:21:09.503Z,101041.53
2023-05-09T04:23:36.965Z,101039.46
2023-05-09T04:26:03.763Z,101041.52
2023-05-09T04:28:30.769Z,101040.44
2023-05-09T04:30:58.260Z,101045.35
2023-05-09T04:33:25.079Z,101044.41
2023-05-09T04:35:52.358Z,101038.79
2023-05-09T04:38:19.345Z,101040.92
2023-05-09T04:40:46.265Z,101036.46
2023-05-09T04:43:12.965Z,101037.06
2023-05-09T04:45:40.788Z,101034.33
2023-05-09T04:48:07.798Z,101028.13
2023-05-09T04:50:34.636Z,101027.14
2023-05-09T04:53:03.424Z,101029.85
2023-05-09T04:55:30.252Z,101036.11
2023-05-09T04:57:57.169Z,101040.41
2023-05-09T05:00:24.228Z,101042.42
2023-05-09T05:02:51.392Z,101043.19
2023-05-09T05:05:24.602Z,101039.28
2023-05-09T05:07:54.258Z,101040.27
2023-05-09T05:10:22.218Z,101043.70
2023-05-09T05:12:53.022Z,101043.34
2023-05-09T05:15:19.768Z,101049.38
2023-05-09T05:17:47.873Z,101046.60
2023-05-09T05:20:22.104Z,101044.08
2023-05-09T05:22:49.419Z,101050.83
2023-05-09T05:25:17.801Z,101054.58
2023-05-09T05:27:45.908Z,101058.27
2023-05-09T05:30:15.590Z,101056.66
2023-05-09T05:32:43.788Z,101057.71
2023-05-09T05:35:12.156Z,101057.89
2023-05-09T05:37:39.947Z,101058.29
2023-05-09T05:40:08.800Z,101057.13
2023-05-09T05:42:36.522Z,101058.14
2023-05-09T05:45:06.260Z,101054.98
2023-05-09T05:47:37.091Z,101060.43
2023-05-09T05:50:11.639Z,101061.41
2023-05-09T05:52:41.986Z,101062.30
2023-05-09T05:55:11.540Z,101059.27
2023-05-09T05:57:39.142Z,101060.06
2023-05-09T06:00:11.388Z,101060.54
2023-05-09T06:02:45.474Z,101064.54
2023-05-09T06:05:17.670Z,101065.80
2023-05-09T06:07:44.450Z,101066.61
2023-05-09T06:10:11.364Z,101067.82
2023-05-09T06:12:38.360Z,101067.48
2023-05-09T06:15:07.168Z,101061.72
2023-05-09T06:17:36.096Z,101057.65
2023-05-09T06:20:02.802Z,101055.31
2023-05-09T06:22:29.562Z,101059.28
2023-05-09T06:24:56.184Z,101063.25
2023-05-09T06:27:22.818Z,101063.91
2023-05-09T06:29:49.413Z,101064.08
2023-05-09T06:32:18.807Z,101066.59
2023-05-09T06:34:45.572Z,101068.84
2023-05-09T06:37:12.158Z,101069.64
2023-05-09T06:39:38.837Z,101068.73
2023-05-09T06:42:05.627Z,101065.82
2023-05-09T06:44:33.367Z,101069.70
2023-05-09T06:46:59.992Z,101065.31
2023-05-09T06:49:26.861Z,101066.58
2023-05-09T06:51:53.426Z,101065.79
2023-05-09T06:54:20.060Z,101062.25
2023-05-09T06:56:46.666Z,101056.77
2023-05-09T06:59:13.572Z,101054.92
2023-05-09T07:01:41.186Z,101056.65
2023-05-09T07:04:08.014Z,101055.06
2023-05-09T07:06:34.633Z,101053.52
2023-05-09T07:09:01.280Z,101051.80
2023-05-09T07:11:27.985Z,101048.04
2023-05-09T07:13:54.548Z,101052.24
2023-05-09T07:16:23.156Z,101046.99
2023-05-09T07:18:49.862Z,101041.29
2023-05-09T07:21:16.668Z,101039.11
2023-05-09T07:23:43.348Z,101037.39
2023-05-09T07:26:10.033Z,101036.60
2023-05-09T07:28:36.781Z,101035.65
2023-05-09T07:31:03.533Z,101035.52
2023-05-09T07:33:30.238Z,101038.75
2023-05-09T07:35:59.304Z,101036.77
2023-05-09T07:38:26.474Z,101032.76
2023-05-09T07:40:53.428Z,101033.78
2023-05-09T07:43:20.037Z,101025.79
2023-05-09T07:45:47.255Z,101026.86
2023-05-09T07:48:13.866Z,101019.66
2023-05-09T07:50:40.437Z,101016.86
2023-05-09T07:53:07.024Z,101014.22
2023-05-09T07:55:33.640Z,101011.33
2023-05-09T07:58:00.323Z,101007.45
2023-05-09T08:00:26.897Z,101008.17
2023-05-09T08:02:54.349Z,101004.08
2023-05-09T08:05:21.134Z,100997.80
2023-05-09T08:07:47.829Z,100996.66
2023-05-09T08:10:14.637Z,100999.36
2023-05-09T08:12:41.353Z,100994.92
2023-05-09T08:15:08.404Z,100995.23
2023-05-09T08:17:35.143Z,100998.85
2023-05-09T08:20:01.923Z,101002.91
2023-05-09T08:22:28.528Z,101000.15
2023-05-09T08:24:55.136Z,100995.20
2023-05-09T08:27:21.863Z,100990.35
2023-05-09T08:29:48.473Z,100993.55
2023-05-09T08:32:15.093Z,100989.96
2023-05-09T08:34:41.936Z,100983.33
2023-05-09T08:37:08.666Z,100979.86
2023-05-09T08:39:35.318Z,100978.17
2023-05-09T08:42:02.589Z,100974.81
2023-05-09T08:44:30.679Z,100975.00
2023-05-09T08:47:01.591Z,100969.89
2023-05-09T08:49:28.897Z,100968.83
2023-05-09T08:51:56.676Z,100971.69
2023-05-09T08:54:25.813Z,100967.41
2023-05-09T08:56:52.607Z,100968.61
2023-05-09T08:59:19.730Z,100971.20
2023-05-09T09:01:47.218Z,100968.34
2023-05-09T09:04:14.278Z,100972.32
2023-05-09T09:06:41.780Z,100972.30
2023-05-09T09:09:09.279Z,100968.22
2023-05-09T09:11:37.186Z,100969.76
2023-05-09T09:14:13.245Z,100969.05
2023-05-09T09:16:43.617Z,100964.23
2023-05-09T09:19:15.614Z,100964.85
2023-05-09T09:21:45.174Z,100954.58
2023-05-09T09:24:20.140Z,100951.89
2023-05-09T09:26:48.761Z,100948.48
2023-05-09T09:29:17.196Z,100945.36
2023-05-09T09:31:46.344Z,100948.52
2023-05-09T09:34:19.185Z,100939.95
2023-05-09T09:36:46.996Z,100941.80
2023-05-09T09:39:14.358Z,100936.73
2023-05-09T09:41:42.381Z,100926.05
2023-05-09T09:44:11.407Z,100922.20
2023-05-09T09:46:46.450Z,100925.33
2023-05-09T09:49:15.032Z,100927.98
2023-05-09T09:51:42.600Z,100926.64
2023-05-09T09:54:10.908Z,100924.45
2023-05-09T09:56:47.653Z,100922.41
2023-05-09T09:59:19.034Z,100924.20
2023-05-09T10:02:07.570Z,100922.52
2023-05-09T10:04:39.161Z,100922.19
2023-05-09T10:07:08.486Z,100914.84
2023-05-09T10:09:38.017Z,100912.26
2023-05-09T10:12:07.093Z,100908.48
2023-05-09T10:14:35.965Z,100913.35
2023-05-09T10:17:05.292Z,100915.92
2023-05-09T10:19:33.106Z,100915.30
2023-05-09T10:22:10.916Z,100910.91
2023-05-09T10:24:47.192Z,100910.02
2023-05-09T10:27:15.680Z,100906.63
2023-05-09T10:29:48.358Z,100904.73
2023-05-09T10:32:27.694Z,100904.97
2023-05-09T10:35:02.196Z,100906.58
2023-05-09T10:37:30.949Z,100907.91
2023-05-09T10:40:00.200Z,100907.61
2023-05-09T10:42:28.517Z,100904.09
2023-05-09T10:44:56.379Z,100901.42
2023-05-09T10:47:27.010Z,100901.81
2023-05-09T10:49:54.929Z,100902.21
2023-05-09T10:52:22.775Z,100904.29
2023-05-09T10:55:04.158Z,100905.33
2023-05-09T10:57:32.227Z,100905.44
2023-05-09T11:00:00.601Z,100900.09
2023-05-09T11:02:31.064Z,100895.60
2023-05-09T11:05:15.985Z,100894.16
2023-05-09T11:07:43.572Z,100877.34
2023-05-09T11:10:15.908Z,100876.24
2023-05-09T11:13:00.240Z,100872.76
2023-05-09T11:15:30.270Z,100869.84
2023-05-09T11:18:12.371Z,100871.52
2023-05-09T11:20:49.215Z,100868.24
2023-05-09T11:23:17.631Z,100860.88
2023-05-09T11:25:47.776Z,100861.48
2023-05-09T11:28:35.763Z,100861.27
2023-05-09T11:31:14.572Z,100857.54
2023-05-09T11:33:43.424Z,100851.51
2023-05-09T11:36:30.292Z,100846.80
2023-05-09T11:39:10.610Z,100834.39
2023-05-09T11:41:43.483Z,100834.36
2023-05-09T11:44:15.447Z,100829.83
2023-05-09T11:46:42.870Z,100826.43
2023-05-09T11:49:11.964Z,100828.69
2023-05-09T11:51:39.862Z,100831.56
2023-05-09T11:54:07.957Z,100828.23
2023-05-09T11:56:40.866Z,100825.08
2023-05-09T11:59:08.045Z,100821.77
2023-05-09T12:01:36.798Z,100822.05
2023-05-09T12:04:07.902Z,100819.52
2023-05-09T12:06:34.612Z,100817.26
2023-05-09T12:09:01.558Z,100819.19
2023-05-09T12:11:32.563Z,100812.83
2023-05-09T12:13:59.200Z,100810.64
2023-05-09T12:16:26.059Z,100808.67
2023-05-09T12:18:53.305Z,100805.01
2023-05-09T12:21:21.736Z,100800.14
2023-05-09T12:23:50.917Z,100797.35
2023-05-09T12:26:19.122Z,100795.70
2023-05-09T12:28:45.988Z,100789.83
2023-05-09T12:31:13.068Z,100787.86
2023-05-09T12:33:40.227Z,100783.92
2023-05-09T12:36:08.723Z,100782.79
2023-05-09T12:38:35.476Z,100786.05
2023-05-09T12:41:04.200Z,100789.93
2023-05-09T12:43:32.733Z,100789.61
2023-05-09T12:46:00.564Z,100793.13
2023-05-09T12:48:27.652Z,100785.48
2023-05-09T12:50:54.413Z,100779.38
2023-05-09T12:53:31.206Z,100774.86
2023-05-09T12:56:05.536Z,100777.84
2023-05-09T12:58:33.616Z,100767.56
2023-05-09T13:01:04.489Z,100763.99
2023-05-09T13:03:37.849Z,100759.48
2023-05-09T13:06:06.705Z,100752.70
2023-05-09T13:08:33.401Z,100751.00
2023-05-09T13:11:11.859Z,100742.34
2023-05-09T13:13:42.643Z,100749.40
2023-05-09T13:16:10.733Z,100737.70
2023-05-09T13:18:38.349Z,100733.71
2023-05-09T13:21:05.035Z,100734.45
2023-05-09T13:23:31.661Z,100735.68
2023-05-09T13:25:58.391Z,100738.46
2023-05-09T13:28:25.028Z,100733.82
2023-05-09T13:30:51.769Z,100729.66
2023-05-09T13:33:25.656Z,100727.41
2023-05-09T13:35:53.708Z,100725.09
2023-05-09T13:38:20.427Z,100727.45
2023-05-09T13:40:47.011Z,100723.02
2023-05-09T13:43:13.672Z,100711.48
2023-05-09T13:45:40.274Z,100705.85
2023-05-09T13:48:07.029Z,100698.40
2023-05-09T13:50:34.379Z,100693.12
2023-05-09T13:53:01.167Z,100695.19
2023-05-09T13:55:27.921Z,100693.16
2023-05-09T13:57:55.108Z,100688.95
2023-05-09T14:00:22.556Z,100692.94
2023-05-09T14:02:49.233Z,100688.67
2023-05-09T14:05:17.078Z,100682.77
2023-05-09T14:07:45.193Z,100683.23
2023-05-09T14:10:12.864Z,100684.16
2023-05-09T14:12:40.690Z,100681.31
2023-05-09T14:15:08.708Z,100671.31
2023-05-09T14:17:35.673Z,100674.41
2023-05-09T14:20:02.409Z,100668.34
2023-05-09T14:22:29.151Z,100667.89
2023-05-09T14:24:57.504Z,100664.76
2023-05-09T14:27:25.258Z,100661.57
2023-05-09T14:29:52.221Z,100653.59
2023-05-09T14:32:18.884Z,100652.10
2023-05-09T14:34:46.006Z,100646.04
2023-05-09T14:37:15.784Z,100643.50
2023-05-09T14:39:45.284Z,100644.33
2023-05-09T14:42:14.129Z,100640.94
2023-05-09T14:44:41.698Z,100642.16
2023-05-09T14:47:09.806Z,100644.70
2023-05-09T14:49:37.894Z,100646.50
2023-05-09T14:52:04.688Z,100651.16
2023-05-09T14:54:31.698Z,100654.02
2023-05-09T14:56:59.612Z,100653.02
2023-05-09T14:59:26.340Z,100653.29
2023-05-09T15:01:53.370Z,100650.66
2023-05-09T15:04:19.973Z,100649.06
2023-05-09T15:06:46.605Z,100646.96
2023-05-09T15:09:14.006Z,100644.27
2023-05-09T15:11:48.392Z,100643.45
2023-05-09T15:14:16.801Z,100644.71
2023-05-09T15:16:44.368Z,100638.73
2023-05-09T15:19:11.322Z,100632.58
2023-05-09T15:21:38.200Z,100638.13
2023-05-09T15:24:05.139Z,100637.13
2023-05-09T15:26:32.359Z,100635.83
2023-05-09T15:28:59.185Z,100639.36
2023-05-09T15:31:26.059Z,100633.60
2023-05-09T15:33:52.923Z,100631.36
2023-05-09T15:36:19.661Z,100634.42
2023-05-09T15:38:49.728Z,100636.62
2023-05-09T15:41:17.082Z,100637.23
2023-05-09T15:43:44.004Z,100632.16
2023-05-09T15:46:11.013Z,100629.89
2023-05-09T15:48:37.874Z,100633.73
2023-05-09T15:51:04.773Z,100627.19
2023-05-09T15:53:31.628Z,100626.20
2023-05-09T15:55:58.254Z,100628.23
2023-05-09T15:58:25.106Z,100624.02
2023-05-09T16:00:52.090Z,100625.84
2023-05-09T16:03:19.185Z,100624.05
2023-05-09T16:05:46.293Z,100627.16
2023-05-09T16:08:13.126Z,100629.64
2023-05-09T16:10:40.620Z,100630.82
2023-05-09T16:13:07.971Z,100636.08
2023-05-09T16:15:35.352Z,100635.55
2023-05-09T16:18:02.311Z,100631.80
2023-05-09T16:20:29.629Z,100625.84
2023-05-09T16:22:56.316Z,100626.45
2023-05-09T16:25:23.025Z,100625.93
2023-05-09T16:27:49.687Z,100625.85
2023-05-09T16:30:16.950Z,100625.81
2023-05-09T16:32:43.908Z,100628.85
2023-05-09T16:35:10.975Z,100627.73
2023-05-09T16:37:37.734Z,100625.56
2023-05-09T16:40:04.920Z,100622.16
2023-05-09T16:42:31.821Z,100624.90
2023-05-09T16:44:58.519Z,100622.08
2023-05-09T16:47:25.348Z,100621.39
2023-05-09T16:49:52.155Z,100624.63
2023-05-09T16:52:18.953Z,100623.79
2023-05-09T16:54:45.559Z,100618.98
2023-05-09T16:57:12.810Z,100622.02
2023-05-09T16:59:39.783Z,100620.10
2023-05-09T17:02:06.495Z,100620.30
2023-05-09T17:04:34.692Z,100611.52
2023-05-09T17:07:02.765Z,100612.27
2023-05-09T17:09:29.608Z,100608.20
2023-05-09T17:11:56.512Z,100608.77
2023-05-09T17:14:23.165Z,100608.45
2023-05-09T17:16:50.001Z,100604.06
2023-05-09T17:19:17.076Z,100600.60
2023-05-09T17:21:44.357Z,100606.49
2023-05-09T17:24:11.092Z,100602.63
2023-05-09T17:26:38.844Z,100610.56
2023-05-09T17:29:06.095Z,100607.63
2023-05-09T17:31:32.843Z,100610.27
2023-05-09T17:33:59.450Z,100612.60
2023-05-09T17:36:26.280Z,100610.37
2023-05-09T17:38:52.881Z,100610.91
2023-05-09T17:41:19.531Z,100610.48
2023-05-09T17:43:46.163Z,100607.42
2023-05-09T17:46:14.949Z,100604.23
2023-05-09T17:48:42.115Z,100605.27
2023-05-09T17:51:09.139Z,100602.04
2023-05-09T17:53:35.761Z,100594.34
2023-05-09T17:56:02.553Z,100591.90
2023-05-09T17:58:29.985Z,100590.27
2023-05-09T18:00:58.713Z,100591.33
2023-05-09T18:03:27.204Z,100587.73
2023-05-09T18:05:54.024Z,100583.98
2023-05-09T18:08:20.649Z,100586.95
2023-05-09T18:10:47.585Z,100583.13
2023-05-09T18:13:14.324Z,100584.09
2023-05-09T18:15:41.322Z,100585.20
2023-05-09T18:18:08.164Z,100589.67
2023-05-09T18:20:35.027Z,100594.61
2023-05-09T18:23:01.788Z,100596.87
2023-05-09T18:25:28.508Z,100597.98
2023-05-09T18:27:56.571Z,100599.30
2023-05-09T18:30:23.318Z,100599.20
2023-05-09T18:32:49.944Z,100598.40
2023-05-09T18:35:16.847Z,100594.86
2023-05-09T18:37:43.901Z,100596.73
2023-05-09T18:40:15.336Z,100593.86
2023-05-09T18:42:42.656Z,100592.70
2023-05-09T18:45:10.389Z,100593.27
2023-05-09T18:47:37.999Z,100592.75
2023-05-09T18:50:07.116Z,100591.24
2023-05-09T18:52:34.398Z,100590.52
2023-05-09T18:55:00.999Z,100588.71
2023-05-09T18:57:28.319Z,100588.77
2023-05-09T18:59:56.066Z,100591.02
2023-05-09T19:02:23.641Z,100590.86
2023-05-09T19:04:51.571Z,100587.97
2023-05-09T19:07:18.506Z,100588.69
2023-05-09T19:09:45.785Z,100591.50
2023-05-09T19:12:12.491Z,100590.65
2023-05-09T19:14:39.151Z,100595.43
2023-05-09T19:17:06.043Z,100593.61
2023-05-09T19:19:33.074Z,100596.44
2023-05-09T19:22:01.573Z,100603.83
2023-05-09T19:24:28.150Z,100605.27
2023-05-09T19:26:55.120Z,100608.69
2023-05-09T19:29:21.757Z,100609.77
2023-05-09T19:31:48.449Z,100606.20
2023-05-09T19:34:15.434Z,100607.02
2023-05-09T19:36:42.061Z,100604.55
2023-05-09T19:39:09.211Z,100606.16
2023-05-09T19:41:35.977Z,100605.20
2023-05-09T19:44:02.727Z,100604.67
2023-05-09T19:46:29.572Z,100606.40
2023-05-09T19:48:56.324Z,100607.83
2023-05-09T19:51:22.975Z,100606.61
2023-05-09T19:53:49.720Z,100605.20
2023-05-09T19:56:16.643Z,100609.85
2023-05-09T19:58:43.503Z,100612.59
2023-05-09T20:01:10.355Z,100609.49
2023-05-09T20:03:38.821Z,100609.04
2023-05-09T20:06:05.844Z,100613.16
2023-05-09T20:08:32.532Z,100612.31
2023-05-09T20:11:00.138Z,100611.55
2023-05-09T20:13:27.514Z,100614.89
2023-05-09T20:15:54.392Z,100617.71
2023-05-09T20:18:21.138Z,100617.44
2023-05-09T20:20:48.087Z,100617.59
2023-05-09T20:23:14.668Z,100615.92
2023-05-09T20:25:41.253Z,100619.92
2023-05-09T20:28:11.591Z,100616.89
2023-05-09T20:30:38.791Z,100615.05
2023-05-09T20:33:05.370Z,100611.20
2023-05-09T20:35:32.227Z,100613.86
2023-05-09T20:37:58.840Z,100609.44
2023-05-09T20:40:25.749Z,100607.16
2023-05-09T20:42:52.763Z,100608.45
2023-05-09T20:45:19.565Z,100602.10
2023-05-09T20:47:46.269Z,100604.22
2023-05-09T20:50:12.957Z,100603.56
2023-05-09T20:52:39.586Z,100603.98
2023-05-09T20:55:06.418Z,100603.51
2023-05-09T20:57:33.085Z,100600.94
2023-05-09T20:59:59.622Z,100595.20
2023-05-09T21:02:26.204Z,100593.77
2023-05-09T21:04:52.804Z,100592.74
2023-05-09T21:07:19.469Z,100596.06
2023-05-09T21:09:47.230Z,100592.95
2023-05-09T21:12:13.862Z,100592.36
2023-05-09T21:14:40.920Z,100589.69
2023-05-09T21:17:07.564Z,100591.25
2023-05-09T21:19:34.240Z,100584.58
2023-05-09T21:22:01.320Z,100589.67
2023-05-09T21:24:27.881Z,100588.98
2023-05-09T21:26:54.498Z,100587.98
2023-05-09T21:29:21.130Z,100587.58
2023-05-09T21:31:47.718Z,100588.25
2023-05-09T21:34:14.274Z,100586.61
2023-05-09T21:36:41.048Z,100584.98
2023-05-09T21:39:11.688Z,100584.41
2023-05-09T21:41:40.130Z,100582.88
2023-05-09T21:44:11.982Z,100579.08
2023-05-09T21:46:38.882Z,100580.09
2023-05-09T21:49:05.709Z,100573.82
2023-05-09T21:51:33.525Z,100573.08
2023-05-09T21:54:01.111Z,100569.94
2023-05-09T21:56:27.641Z,100568.02
2023-05-09T21:58:54.157Z,100568.27
2023-05-09T22:01:21.236Z,100565.59
2023-05-09T22:03:47.908Z,100562.42
2023-05-09T22:06:14.666Z,100565.03
2023-05-09T22:08:41.196Z,100556.56
2023-05-09T22:11:07.830Z,100554.80
2023-05-09T22:13:36.367Z,100560.75
2023-05-09T22:16:04.069Z,100558.10
2023-05-09T22:18:31.398Z,100553.79
2023-05-09T22:20:58.008Z,100551.09
2023-05-09T22:23:24.731Z,100547.40
2023-05-09T22:25:51.346Z,100549.64
2023-05-09T22:28:17.985Z,100549.30
2023-05-09T22:30:44.586Z,100544.83
2023-05-09T22:33:11.271Z,100547.04
2023-05-09T22:35:37.992Z,100539.93
2023-05-09T22:38:04.512Z,100535.95
2023-05-09T22:40:31.125Z,100537.45
2023-05-09T22:42:57.696Z,100535.96
2023-05-09T22:45:24.255Z,100531.98
2023-05-09T22:47:50.952Z,100527.94
2023-05-09T22:50:17.908Z,100526.33
2023-05-09T22:52:45.021Z,100517.77
2023-05-09T22:55:11.800Z,100518.25
2023-05-09T22:57:38.495Z,100508.54
2023-05-09T23:00:06.195Z,100508.55
2023-05-09T23:02:32.967Z,100505.11
2023-05-09T23:04:59.987Z,100503.68
2023-05-09T23:07:26.547Z,100494.66
2023-05-09T23:09:53.201Z,100491.49
2023-05-09T23:12:19.855Z,100487.19
2023-05-09T23:14:46.839Z,100486.96
2023-05-09T23:17:13.488Z,100486.59
2023-05-09T23:19:40.072Z,100479.27
2023-05-09T23:22:06.728Z,100481.70
2023-05-09T23:24:33.360Z,100474.76
2023-05-09T23:26:59.972Z,100469.44
2023-05-09T23:29:26.796Z,100466.42
2023-05-09T23:31:53.592Z,100464.90
2023-05-09T23:34:20.547Z,100461.92
2023-05-09T23:36:47.127Z,100458.56
2023-05-09T23:39:15.579Z,100458.20
2023-05-09T23:41:42.155Z,100455.73
2023-05-09T23:44:09.108Z,100449.10
2023-05-09T23:46:35.915Z,100450.54
2023-05-09T23:49:02.606Z,100448.45
2023-05-09T23:51:29.212Z,100445.67
2023-05-09T23:53:55.797Z,100444.50
2023-05-09T23:56:22.527Z,100442.77
2023-05-09T23:58:49.193Z,100440.05
